sensor_id;sensor_type;location;lat;lon;timestamp;P1;durP1;ratioP1;P2;durP2;ratioP2
14768;SDS011;7476;49.404;11.152;2023-12-29T00:01:46;4.60;;;3.50;;
14768;SDS011;7476;49.404;11.152;2023-12-29T00:04:13;3.90;;;3.10;;
14768;SDS011;7476;49.404;11.152;2023-12-29T00:06:41;4.40;;;3.20;;
14768;SDS011;7476;49.404;11.152;2023-12-29T00:09:07;3.47;;;3.10;;
14768;SDS011;7476;49.404;11.152;2023-12-29T00:11:34;5.50;;;2.90;;
14768;SDS011;7476;49.404;11.152;2023-12-29T00:14:01;3.50;;;3.00;;
14768;SDS011;7476;49.404;11.152;2023-12-29T00:16:27;3.90;;;3.00;;
14768;SDS011;7476;49.404;11.152;2023-12-29T00:18:54;2.90;;;2.60;;
14768;SDS011;7476;49.404;11.152;2023-12-29T00:21:21;4.27;;;2.70;;
14768;SDS011;7476;49.404;11.152;2023-12-29T00:23:49;3.83;;;3.10;;
14768;SDS011;7476;49.404;11.152;2023-12-29T00:26:15;4.00;;;3.10;;
14768;SDS011;7476;49.404;11.152;2023-12-29T00:28:42;3.43;;;3.00;;
14768;SDS011;7476;49.404;11.152;2023-12-29T00:31:13;3.20;;;2.87;;
14768;SDS011;7476;49.404;11.152;2023-12-29T00:33:40;3.93;;;2.77;;
14768;SDS011;7476;49.404;11.152;2023-12-29T00:36:07;4.47;;;2.87;;
14768;SDS011;7476;49.404;11.152;2023-12-29T00:38:34;5.27;;;3.00;;
14768;SDS011;7476;49.404;11.152;2023-12-29T00:41:02;3.60;;;2.90;;
14768;SDS011;7476;49.404;11.152;2023-12-29T00:43:31;3.90;;;2.73;;
14768;SDS011;7476;49.404;11.152;2023-12-29T00:45:58;4.00;;;3.03;;
14768;SDS011;7476;49.404;11.152;2023-12-29T00:48:26;3.57;;;2.73;;
14768;SDS011;7476;49.404;11.152;2023-12-29T00:50:53;3.20;;;2.50;;
14768;SDS011;7476;49.404;11.152;2023-12-29T00:53:20;3.67;;;3.07;;
14768;SDS011;7476;49.404;11.152;2023-12-29T00:55:47;4.03;;;2.80;;
14768;SDS011;7476;49.404;11.152;2023-12-29T00:58:15;4.00;;;2.70;;
14768;SDS011;7476;49.404;11.152;2023-12-29T01:00:41;3.30;;;2.87;;
14768;SDS011;7476;49.404;11.152;2023-12-29T01:03:08;2.93;;;2.63;;
14768;SDS011;7476;49.404;11.152;2023-12-29T01:05:35;2.97;;;2.70;;
14768;SDS011;7476;49.404;11.152;2023-12-29T01:08:01;3.83;;;3.30;;
14768;SDS011;7476;49.404;11.152;2023-12-29T01:10:28;3.07;;;2.80;;
14768;SDS011;7476;49.404;11.152;2023-12-29T01:12:55;3.47;;;2.93;;
14768;SDS011;7476;49.404;11.152;2023-12-29T01:15:23;4.33;;;3.00;;
14768;SDS011;7476;49.404;11.152;2023-12-29T01:17:50;3.77;;;2.60;;
14768;SDS011;7476;49.404;11.152;2023-12-29T01:20:16;2.90;;;2.63;;
14768;SDS011;7476;49.404;11.152;2023-12-29T01:22:43;3.13;;;2.63;;
14768;SDS011;7476;49.404;11.152;2023-12-29T01:25:10;2.90;;;2.60;;
14768;SDS011;7476;49.404;11.152;2023-12-29T01:27:36;3.10;;;2.40;;
14768;SDS011;7476;49.404;11.152;2023-12-29T01:30:04;3.83;;;2.40;;
14768;SDS011;7476;49.404;11.152;2023-12-29T01:32:33;2.80;;;2.30;;
14768;SDS011;7476;49.404;11.152;2023-12-29T01:34:59;3.07;;;2.50;;
14768;SDS011;7476;49.404;11.152;2023-12-29T01:37:26;3.07;;;2.70;;
14768;SDS011;7476;49.404;11.152;2023-12-29T01:39:53;3.23;;;2.87;;
14768;SDS011;7476;49.404;11.152;2023-12-29T01:42:19;3.57;;;2.90;;
14768;SDS011;7476;49.404;11.152;2023-12-29T01:44:46;3.27;;;2.80;;
14768;SDS011;7476;49.404;11.152;2023-12-29T01:47:17;4.60;;;2.60;;
14768;SDS011;7476;49.404;11.152;2023-12-29T01:49:45;3.20;;;2.90;;
14768;SDS011;7476;49.404;11.152;2023-12-29T01:52:14;4.10;;;3.27;;
14768;SDS011;7476;49.404;11.152;2023-12-29T01:54:43;4.20;;;3.47;;
14768;SDS011;7476;49.404;11.152;2023-12-29T01:57:12;4.20;;;3.50;;
14768;SDS011;7476;49.404;11.152;2023-12-29T01:59:38;4.17;;;2.90;;
14768;SDS011;7476;49.404;11.152;2023-12-29T02:02:06;5.33;;;3.53;;
14768;SDS011;7476;49.404;11.152;2023-12-29T02:04:33;5.00;;;3.47;;
14768;SDS011;7476;49.404;11.152;2023-12-29T02:07:03;4.47;;;3.13;;
14768;SDS011;7476;49.404;11.152;2023-12-29T02:09:30;3.80;;;3.37;;
14768;SDS011;7476;49.404;11.152;2023-12-29T02:11:58;4.13;;;3.70;;
14768;SDS011;7476;49.404;11.152;2023-12-29T02:14:25;3.83;;;3.43;;
14768;SDS011;7476;49.404;11.152;2023-12-29T02:16:53;4.07;;;3.30;;
14768;SDS011;7476;49.404;11.152;2023-12-29T02:19:33;4.20;;;3.53;;
14768;SDS011;7476;49.404;11.152;2023-12-29T02:22:06;4.03;;;3.40;;
14768;SDS011;7476;49.404;11.152;2023-12-29T02:24:33;6.07;;;3.87;;
14768;SDS011;7476;49.404;11.152;2023-12-29T02:27:05;6.80;;;3.90;;
14768;SDS011;7476;49.404;11.152;2023-12-29T02:29:48;5.40;;;3.67;;
14768;SDS011;7476;49.404;11.152;2023-12-29T02:32:21;5.13;;;3.70;;
14768;SDS011;7476;49.404;11.152;2023-12-29T02:34:49;4.60;;;4.03;;
14768;SDS011;7476;49.404;11.152;2023-12-29T02:37:18;6.30;;;4.20;;
14768;SDS011;7476;49.404;11.152;2023-12-29T02:39:45;4.70;;;4.20;;
14768;SDS011;7476;49.404;11.152;2023-12-29T02:42:13;4.60;;;4.10;;
14768;SDS011;7476;49.404;11.152;2023-12-29T02:44:40;6.60;;;4.00;;
14768;SDS011;7476;49.404;11.152;2023-12-29T02:47:07;4.70;;;4.10;;
14768;SDS011;7476;49.404;11.152;2023-12-29T02:49:34;6.17;;;4.10;;
14768;SDS011;7476;49.404;11.152;2023-12-29T02:52:00;5.43;;;4.30;;
14768;SDS011;7476;49.404;11.152;2023-12-29T02:54:27;4.57;;;3.77;;
14768;SDS011;7476;49.404;11.152;2023-12-29T02:56:53;5.43;;;4.23;;
14768;SDS011;7476;49.404;11.152;2023-12-29T02:59:22;4.60;;;3.80;;
14768;SDS011;7476;49.404;11.152;2023-12-29T03:01:49;5.93;;;4.10;;
14768;SDS011;7476;49.404;11.152;2023-12-29T03:04:15;5.13;;;4.13;;
14768;SDS011;7476;49.404;11.152;2023-12-29T03:06:42;5.70;;;4.37;;
14768;SDS011;7476;49.404;11.152;2023-12-29T03:09:09;5.20;;;4.13;;
14768;SDS011;7476;49.404;11.152;2023-12-29T03:11:34;6.00;;;4.30;;
14768;SDS011;7476;49.404;11.152;2023-12-29T03:14:01;5.43;;;4.37;;
14768;SDS011;7476;49.404;11.152;2023-12-29T03:16:29;4.60;;;4.10;;
14768;SDS011;7476;49.404;11.152;2023-12-29T03:18:56;6.03;;;4.43;;
14768;SDS011;7476;49.404;11.152;2023-12-29T03:21:23;6.40;;;4.70;;
14768;SDS011;7476;49.404;11.152;2023-12-29T03:23:49;5.57;;;4.53;;
14768;SDS011;7476;49.404;11.152;2023-12-29T03:26:16;5.97;;;4.30;;
14768;SDS011;7476;49.404;11.152;2023-12-29T03:28:43;5.27;;;4.43;;
14768;SDS011;7476;49.404;11.152;2023-12-29T03:31:09;4.73;;;4.17;;
14768;SDS011;7476;49.404;11.152;2023-12-29T03:33:37;6.17;;;4.40;;
14768;SDS011;7476;49.404;11.152;2023-12-29T03:36:05;5.20;;;3.93;;
14768;SDS011;7476;49.404;11.152;2023-12-29T03:38:32;5.27;;;4.50;;
14768;SDS011;7476;49.404;11.152;2023-12-29T03:40:59;5.63;;;4.67;;
14768;SDS011;7476;49.404;11.152;2023-12-29T03:43:26;6.67;;;4.50;;
14768;SDS011;7476;49.404;11.152;2023-12-29T03:45:52;5.20;;;3.73;;
14768;SDS011;7476;49.404;11.152;2023-12-29T03:48:19;5.90;;;4.33;;
14768;SDS011;7476;49.404;11.152;2023-12-29T03:50:48;5.17;;;4.20;;
14768;SDS011;7476;49.404;11.152;2023-12-29T03:53:14;5.33;;;4.27;;
14768;SDS011;7476;49.404;11.152;2023-12-29T03:55:41;6.50;;;4.57;;
14768;SDS011;7476;49.404;11.152;2023-12-29T03:58:08;5.03;;;4.47;;
14768;SDS011;7476;49.404;11.152;2023-12-29T04:00:35;5.13;;;4.50;;
14768;SDS011;7476;49.404;11.152;2023-12-29T04:03:03;5.80;;;4.33;;
14768;SDS011;7476;49.404;11.152;2023-12-29T04:05:30;6.10;;;4.47;;
14768;SDS011;7476;49.404;11.152;2023-12-29T04:07:58;5.47;;;4.83;;
14768;SDS011;7476;49.404;11.152;2023-12-29T04:10:25;6.90;;;4.90;;
14768;SDS011;7476;49.404;11.152;2023-12-29T04:12:51;6.40;;;5.00;;
14768;SDS011;7476;49.404;11.152;2023-12-29T04:15:18;9.43;;;5.53;;
14768;SDS011;7476;49.404;11.152;2023-12-29T04:17:44;6.97;;;5.00;;
14768;SDS011;7476;49.404;11.152;2023-12-29T04:20:11;6.17;;;4.83;;
14768;SDS011;7476;49.404;11.152;2023-12-29T04:22:38;6.90;;;5.40;;
14768;SDS011;7476;49.404;11.152;2023-12-29T04:25:06;5.77;;;5.00;;
14768;SDS011;7476;49.404;11.152;2023-12-29T04:27:34;10.03;;;5.13;;
14768;SDS011;7476;49.404;11.152;2023-12-29T04:30:00;6.80;;;5.20;;
14768;SDS011;7476;49.404;11.152;2023-12-29T04:32:28;5.73;;;4.70;;
14768;SDS011;7476;49.404;11.152;2023-12-29T04:34:54;7.10;;;4.93;;
14768;SDS011;7476;49.404;11.152;2023-12-29T04:37:21;5.60;;;4.90;;
14768;SDS011;7476;49.404;11.152;2023-12-29T04:39:47;5.93;;;4.90;;
14768;SDS011;7476;49.404;11.152;2023-12-29T04:42:15;4.97;;;4.37;;
14768;SDS011;7476;49.404;11.152;2023-12-29T04:44:43;5.57;;;4.73;;
14768;SDS011;7476;49.404;11.152;2023-12-29T04:47:09;5.73;;;4.80;;
14768;SDS011;7476;49.404;11.152;2023-12-29T04:49:36;6.73;;;5.13;;
14768;SDS011;7476;49.404;11.152;2023-12-29T04:52:04;6.17;;;5.10;;
14768;SDS011;7476;49.404;11.152;2023-12-29T04:54:31;6.77;;;4.90;;
14768;SDS011;7476;49.404;11.152;2023-12-29T04:56:57;5.77;;;5.00;;
14768;SDS011;7476;49.404;11.152;2023-12-29T04:59:25;6.03;;;5.23;;
14768;SDS011;7476;49.404;11.152;2023-12-29T05:01:52;7.23;;;5.30;;
14768;SDS011;7476;49.404;11.152;2023-12-29T05:04:19;6.43;;;5.03;;
14768;SDS011;7476;49.404;11.152;2023-12-29T05:06:45;6.53;;;5.40;;
14768;SDS011;7476;49.404;11.152;2023-12-29T05:09:12;7.33;;;5.73;;
14768;SDS011;7476;49.404;11.152;2023-12-29T05:11:39;6.87;;;5.30;;
14768;SDS011;7476;49.404;11.152;2023-12-29T05:14:05;7.00;;;5.70;;
14768;SDS011;7476;49.404;11.152;2023-12-29T05:16:33;6.17;;;5.13;;
14768;SDS011;7476;49.404;11.152;2023-12-29T05:19:01;8.20;;;5.50;;
14768;SDS011;7476;49.404;11.152;2023-12-29T05:21:27;8.43;;;6.07;;
14768;SDS011;7476;49.404;11.152;2023-12-29T05:23:56;6.90;;;5.97;;
14768;SDS011;7476;49.404;11.152;2023-12-29T05:26:22;8.87;;;5.60;;
14768;SDS011;7476;49.404;11.152;2023-12-29T05:28:49;6.87;;;5.57;;
14768;SDS011;7476;49.404;11.152;2023-12-29T05:31:16;7.23;;;5.40;;
14768;SDS011;7476;49.404;11.152;2023-12-29T05:33:44;6.23;;;5.23;;
14768;SDS011;7476;49.404;11.152;2023-12-29T05:36:11;7.40;;;5.30;;
14768;SDS011;7476;49.404;11.152;2023-12-29T05:38:38;7.50;;;5.70;;
14768;SDS011;7476;49.404;11.152;2023-12-29T05:41:06;7.73;;;5.90;;
14768;SDS011;7476;49.404;11.152;2023-12-29T05:43:32;7.20;;;5.30;;
14768;SDS011;7476;49.404;11.152;2023-12-29T05:46:00;7.17;;;5.60;;
14768;SDS011;7476;49.404;11.152;2023-12-29T05:48:26;6.50;;;5.40;;
14768;SDS011;7476;49.404;11.152;2023-12-29T05:50:54;9.37;;;5.60;;
14768;SDS011;7476;49.404;11.152;2023-12-29T05:53:21;6.80;;;5.50;;
14768;SDS011;7476;49.404;11.152;2023-12-29T05:55:48;6.70;;;5.33;;
14768;SDS011;7476;49.404;11.152;2023-12-29T05:58:14;6.07;;;5.40;;
14768;SDS011;7476;49.404;11.152;2023-12-29T06:00:41;6.23;;;5.33;;
14768;SDS011;7476;49.404;11.152;2023-12-29T06:03:09;6.23;;;5.30;;
14768;SDS011;7476;49.404;11.152;2023-12-29T06:05:36;6.40;;;5.30;;
14768;SDS011;7476;49.404;11.152;2023-12-29T06:08:04;7.30;;;5.87;;
14768;SDS011;7476;49.404;11.152;2023-12-29T06:10:32;6.17;;;5.10;;
14768;SDS011;7476;49.404;11.152;2023-12-29T06:13:00;6.27;;;5.17;;
14768;SDS011;7476;49.404;11.152;2023-12-29T06:15:27;7.17;;;5.47;;
14768;SDS011;7476;49.404;11.152;2023-12-29T06:17:54;5.63;;;4.67;;
14768;SDS011;7476;49.404;11.152;2023-12-29T06:20:21;6.60;;;4.87;;
14768;SDS011;7476;49.404;11.152;2023-12-29T06:22:48;6.03;;;5.10;;
14768;SDS011;7476;49.404;11.152;2023-12-29T06:25:16;5.57;;;4.93;;
14768;SDS011;7476;49.404;11.152;2023-12-29T06:27:42;7.27;;;5.33;;
14768;SDS011;7476;49.404;11.152;2023-12-29T06:30:09;6.53;;;5.57;;
14768;SDS011;7476;49.404;11.152;2023-12-29T06:32:36;6.10;;;5.27;;
14768;SDS011;7476;49.404;11.152;2023-12-29T06:35:04;5.83;;;5.20;;
14768;SDS011;7476;49.404;11.152;2023-12-29T06:37:31;6.90;;;5.50;;
14768;SDS011;7476;49.404;11.152;2023-12-29T06:39:58;6.63;;;5.37;;
14768;SDS011;7476;49.404;11.152;2023-12-29T06:42:26;6.70;;;5.10;;
14768;SDS011;7476;49.404;11.152;2023-12-29T06:44:53;6.60;;;5.47;;
14768;SDS011;7476;49.404;11.152;2023-12-29T06:47:19;6.90;;;5.00;;
14768;SDS011;7476;49.404;11.152;2023-12-29T06:49:47;6.80;;;5.40;;
14768;SDS011;7476;49.404;11.152;2023-12-29T06:52:13;5.77;;;4.83;;
14768;SDS011;7476;49.404;11.152;2023-12-29T06:54:40;7.03;;;4.93;;
14768;SDS011;7476;49.404;11.152;2023-12-29T06:57:06;5.60;;;5.00;;
14768;SDS011;7476;49.404;11.152;2023-12-29T06:59:34;7.23;;;5.10;;
14768;SDS011;7476;49.404;11.152;2023-12-29T07:02:02;6.37;;;4.63;;
14768;SDS011;7476;49.404;11.152;2023-12-29T07:04:29;6.73;;;4.73;;
14768;SDS011;7476;49.404;11.152;2023-12-29T07:06:56;5.50;;;4.53;;
14768;SDS011;7476;49.404;11.152;2023-12-29T07:09:24;6.07;;;4.80;;
14768;SDS011;7476;49.404;11.152;2023-12-29T07:11:51;4.97;;;4.40;;
14768;SDS011;7476;49.404;11.152;2023-12-29T07:14:17;5.27;;;4.37;;
14768;SDS011;7476;49.404;11.152;2023-12-29T07:16:45;4.93;;;4.13;;
14768;SDS011;7476;49.404;11.152;2023-12-29T07:19:12;5.97;;;4.13;;
14768;SDS011;7476;49.404;11.152;2023-12-29T07:21:39;5.17;;;4.40;;
14768;SDS011;7476;49.404;11.152;2023-12-29T07:24:05;4.73;;;4.23;;
14768;SDS011;7476;49.404;11.152;2023-12-29T07:26:32;4.67;;;4.00;;
14768;SDS011;7476;49.404;11.152;2023-12-29T07:28:59;5.83;;;4.00;;
14768;SDS011;7476;49.404;11.152;2023-12-29T07:31:26;4.70;;;4.17;;
14768;SDS011;7476;49.404;11.152;2023-12-29T07:33:54;4.13;;;3.73;;
14768;SDS011;7476;49.404;11.152;2023-12-29T07:36:21;4.40;;;3.90;;
14768;SDS011;7476;49.404;11.152;2023-12-29T07:38:48;3.97;;;3.57;;
14768;SDS011;7476;49.404;11.152;2023-12-29T07:41:14;4.70;;;3.67;;
14768;SDS011;7476;49.404;11.152;2023-12-29T07:43:42;4.30;;;3.90;;
14768;SDS011;7476;49.404;11.152;2023-12-29T07:46:08;5.07;;;3.70;;
14768;SDS011;7476;49.404;11.152;2023-12-29T07:48:35;3.90;;;3.60;;
14768;SDS011;7476;49.404;11.152;2023-12-29T07:51:04;4.23;;;3.70;;
14768;SDS011;7476;49.404;11.152;2023-12-29T07:53:32;4.07;;;3.67;;
14768;SDS011;7476;49.404;11.152;2023-12-29T07:55:58;4.93;;;3.90;;
14768;SDS011;7476;49.404;11.152;2023-12-29T07:58:25;3.67;;;3.37;;
14768;SDS011;7476;49.404;11.152;2023-12-29T08:00:52;4.70;;;3.70;;
14768;SDS011;7476;49.404;11.152;2023-12-29T08:03:18;4.83;;;3.63;;
14768;SDS011;7476;49.404;11.152;2023-12-29T08:05:45;4.67;;;3.73;;
14768;SDS011;7476;49.404;11.152;2023-12-29T08:08:13;5.13;;;3.80;;
14768;SDS011;7476;49.404;11.152;2023-12-29T08:10:40;4.80;;;3.90;;
14768;SDS011;7476;49.404;11.152;2023-12-29T08:13:07;4.00;;;3.60;;
14768;SDS011;7476;49.404;11.152;2023-12-29T08:15:34;4.30;;;3.77;;
14768;SDS011;7476;49.404;11.152;2023-12-29T08:18:02;4.63;;;4.07;;
14768;SDS011;7476;49.404;11.152;2023-12-29T08:20:29;4.83;;;3.83;;
14768;SDS011;7476;49.404;11.152;2023-12-29T08:22:55;4.27;;;3.77;;
14768;SDS011;7476;49.404;11.152;2023-12-29T08:25:24;4.33;;;3.90;;
14768;SDS011;7476;49.404;11.152;2023-12-29T08:27:50;5.40;;;3.97;;
14768;SDS011;7476;49.404;11.152;2023-12-29T08:30:17;5.20;;;3.70;;
14768;SDS011;7476;49.404;11.152;2023-12-29T08:32:44;4.47;;;3.60;;
14768;SDS011;7476;49.404;11.152;2023-12-29T08:35:10;3.97;;;3.57;;
14768;SDS011;7476;49.404;11.152;2023-12-29T08:37:37;4.17;;;3.60;;
14768;SDS011;7476;49.404;11.152;2023-12-29T08:40:04;4.83;;;3.40;;
14768;SDS011;7476;49.404;11.152;2023-12-29T08:42:34;4.30;;;3.70;;
14768;SDS011;7476;49.404;11.152;2023-12-29T08:45:00;3.73;;;3.30;;
14768;SDS011;7476;49.404;11.152;2023-12-29T08:47:28;3.93;;;3.33;;
14768;SDS011;7476;49.404;11.152;2023-12-29T08:49:55;3.87;;;3.40;;
14768;SDS011;7476;49.404;11.152;2023-12-29T08:52:21;3.60;;;3.30;;
14768;SDS011;7476;49.404;11.152;2023-12-29T08:54:48;3.53;;;3.13;;
14768;SDS011;7476;49.404;11.152;2023-12-29T08:57:15;3.20;;;2.80;;
14768;SDS011;7476;49.404;11.152;2023-12-29T08:59:43;4.60;;;3.40;;
14768;SDS011;7476;49.404;11.152;2023-12-29T09:02:09;4.83;;;3.20;;
14768;SDS011;7476;49.404;11.152;2023-12-29T09:04:36;3.83;;;2.90;;
14768;SDS011;7476;49.404;11.152;2023-12-29T09:07:03;3.30;;;3.00;;
14768;SDS011;7476;49.404;11.152;2023-12-29T09:09:31;4.33;;;3.33;;
14768;SDS011;7476;49.404;11.152;2023-12-29T09:11:57;4.10;;;3.07;;
14768;SDS011;7476;49.404;11.152;2023-12-29T09:14:24;3.83;;;3.00;;
14768;SDS011;7476;49.404;11.152;2023-12-29T09:16:52;3.70;;;3.03;;
14768;SDS011;7476;49.404;11.152;2023-12-29T09:19:18;3.23;;;2.93;;
14768;SDS011;7476;49.404;11.152;2023-12-29T09:21:45;4.77;;;3.10;;
14768;SDS011;7476;49.404;11.152;2023-12-29T09:24:12;3.60;;;3.03;;
14768;SDS011;7476;49.404;11.152;2023-12-29T09:26:39;3.60;;;2.97;;
14768;SDS011;7476;49.404;11.152;2023-12-29T09:29:05;3.80;;;2.90;;
14768;SDS011;7476;49.404;11.152;2023-12-29T09:31:32;3.73;;;3.20;;
14768;SDS011;7476;49.404;11.152;2023-12-29T09:34:00;3.23;;;2.90;;
14768;SDS011;7476;49.404;11.152;2023-12-29T09:36:27;3.93;;;3.23;;
14768;SDS011;7476;49.404;11.152;2023-12-29T09:38:54;3.63;;;3.33;;
14768;SDS011;7476;49.404;11.152;2023-12-29T09:41:21;3.60;;;3.30;;
14768;SDS011;7476;49.404;11.152;2023-12-29T09:43:50;4.47;;;3.50;;
14768;SDS011;7476;49.404;11.152;2023-12-29T09:46:17;4.33;;;3.20;;
14768;SDS011;7476;49.404;11.152;2023-12-29T09:48:45;3.97;;;3.40;;
14768;SDS011;7476;49.404;11.152;2023-12-29T09:51:14;6.27;;;3.70;;
14768;SDS011;7476;49.404;11.152;2023-12-29T09:53:41;4.20;;;3.40;;
14768;SDS011;7476;49.404;11.152;2023-12-29T09:56:09;5.90;;;3.50;;
14768;SDS011;7476;49.404;11.152;2023-12-29T09:58:35;4.13;;;3.53;;
14768;SDS011;7476;49.404;11.152;2023-12-29T10:01:04;3.57;;;3.27;;
14768;SDS011;7476;49.404;11.152;2023-12-29T10:03:31;4.50;;;3.47;;
14768;SDS011;7476;49.404;11.152;2023-12-29T10:05:59;4.03;;;3.50;;
14768;SDS011;7476;49.404;11.152;2023-12-29T10:08:28;5.17;;;3.67;;
14768;SDS011;7476;49.404;11.152;2023-12-29T10:10:57;4.00;;;3.60;;
14768;SDS011;7476;49.404;11.152;2023-12-29T10:13:26;4.67;;;3.77;;
14768;SDS011;7476;49.404;11.152;2023-12-29T10:15:56;5.57;;;3.53;;
14768;SDS011;7476;49.404;11.152;2023-12-29T10:18:28;5.77;;;4.00;;
14768;SDS011;7476;49.404;11.152;2023-12-29T10:21:05;4.30;;;3.90;;
14768;SDS011;7476;49.404;11.152;2023-12-29T10:23:40;4.50;;;3.90;;
14768;SDS011;7476;49.404;11.152;2023-12-29T10:26:10;4.90;;;4.17;;
14768;SDS011;7476;49.404;11.152;2023-12-29T10:28:37;5.57;;;4.40;;
14768;SDS011;7476;49.404;11.152;2023-12-29T10:31:04;4.73;;;4.10;;
14768;SDS011;7476;49.404;11.152;2023-12-29T10:33:31;4.47;;;3.97;;
14768;SDS011;7476;49.404;11.152;2023-12-29T10:35:59;5.20;;;4.67;;
14768;SDS011;7476;49.404;11.152;2023-12-29T10:38:28;6.17;;;4.90;;
14768;SDS011;7476;49.404;11.152;2023-12-29T10:40:57;5.90;;;4.77;;
14768;SDS011;7476;49.404;11.152;2023-12-29T10:43:37;5.67;;;4.57;;
14768;SDS011;7476;49.404;11.152;2023-12-29T10:46:05;5.97;;;5.03;;
14768;SDS011;7476;49.404;11.152;2023-12-29T10:48:33;6.43;;;5.10;;
14768;SDS011;7476;49.404;11.152;2023-12-29T10:51:00;6.63;;;4.97;;
14768;SDS011;7476;49.404;11.152;2023-12-29T10:53:29;7.57;;;4.60;;
14768;SDS011;7476;49.404;11.152;2023-12-29T10:55:55;6.23;;;5.63;;
14768;SDS011;7476;49.404;11.152;2023-12-29T10:58:24;6.43;;;5.20;;
14768;SDS011;7476;49.404;11.152;2023-12-29T11:00:52;5.57;;;4.93;;
14768;SDS011;7476;49.404;11.152;2023-12-29T11:03:19;5.20;;;4.60;;
14768;SDS011;7476;49.404;11.152;2023-12-29T11:05:46;6.50;;;4.87;;
14768;SDS011;7476;49.404;11.152;2023-12-29T11:08:16;6.97;;;4.50;;
14768;SDS011;7476;49.404;11.152;2023-12-29T11:10:43;6.23;;;5.10;;
14768;SDS011;7476;49.404;11.152;2023-12-29T11:13:12;5.60;;;4.73;;
14768;SDS011;7476;49.404;11.152;2023-12-29T11:15:39;4.67;;;4.20;;
14768;SDS011;7476;49.404;11.152;2023-12-29T11:18:09;5.50;;;4.47;;
14768;SDS011;7476;49.404;11.152;2023-12-29T11:20:38;4.83;;;4.33;;
14768;SDS011;7476;49.404;11.152;2023-12-29T11:23:06;4.70;;;4.20;;
14768;SDS011;7476;49.404;11.152;2023-12-29T11:25:34;5.00;;;4.50;;
14768;SDS011;7476;49.404;11.152;2023-12-29T11:28:01;4.80;;;4.13;;
14768;SDS011;7476;49.404;11.152;2023-12-29T11:30:29;4.47;;;4.07;;
14768;SDS011;7476;49.404;11.152;2023-12-29T11:32:57;4.97;;;4.00;;
14768;SDS011;7476;49.404;11.152;2023-12-29T11:35:30;4.97;;;4.47;;
14768;SDS011;7476;49.404;11.152;2023-12-29T11:38:06;5.07;;;4.40;;
14768;SDS011;7476;49.404;11.152;2023-12-29T11:40:50;4.87;;;4.37;;
14768;SDS011;7476;49.404;11.152;2023-12-29T11:43:24;4.90;;;4.17;;
14768;SDS011;7476;49.404;11.152;2023-12-29T11:45:53;4.13;;;3.73;;
14768;SDS011;7476;49.404;11.152;2023-12-29T11:51:32;4.87;;;4.00;;
14768;SDS011;7476;49.404;11.152;2023-12-29T11:54:00;4.17;;;3.77;;
14768;SDS011;7476;49.404;11.152;2023-12-29T11:56:32;4.73;;;4.07;;
14768;SDS011;7476;49.404;11.152;2023-12-29T11:59:12;6.63;;;3.87;;
14768;SDS011;7476;49.404;11.152;2023-12-29T12:01:41;3.40;;;3.10;;
14768;SDS011;7476;49.404;11.152;2023-12-29T12:07:04;4.47;;;2.97;;
14768;SDS011;7476;49.404;11.152;2023-12-29T12:09:32;3.30;;;2.97;;
14768;SDS011;7476;49.404;11.152;2023-12-29T12:12:00;3.47;;;3.10;;
14768;SDS011;7476;49.404;11.152;2023-12-29T12:14:44;3.77;;;3.20;;
14768;SDS011;7476;49.404;11.152;2023-12-29T12:17:13;3.10;;;2.80;;
14768;SDS011;7476;49.404;11.152;2023-12-29T12:19:53;4.30;;;3.50;;
14768;SDS011;7476;49.404;11.152;2023-12-29T12:22:23;3.53;;;3.23;;
14768;SDS011;7476;49.404;11.152;2023-12-29T12:27:21;3.90;;;3.50;;
14768;SDS011;7476;49.404;11.152;2023-12-29T12:29:50;3.93;;;3.20;;
14768;SDS011;7476;49.404;11.152;2023-12-29T12:32:24;4.40;;;2.87;;
14768;SDS011;7476;49.404;11.152;2023-12-29T12:34:51;3.90;;;2.70;;
14768;SDS011;7476;49.404;11.152;2023-12-29T12:37:18;2.50;;;2.30;;
14768;SDS011;7476;49.404;11.152;2023-12-29T12:39:46;3.83;;;2.63;;
14768;SDS011;7476;49.404;11.152;2023-12-29T12:42:13;3.07;;;2.70;;
14768;SDS011;7476;49.404;11.152;2023-12-29T12:44:40;2.20;;;2.00;;
14768;SDS011;7476;49.404;11.152;2023-12-29T12:47:14;2.13;;;1.87;;
14768;SDS011;7476;49.404;11.152;2023-12-29T12:49:44;2.00;;;1.80;;
14768;SDS011;7476;49.404;11.152;2023-12-29T12:52:11;1.73;;;1.63;;
14768;SDS011;7476;49.404;11.152;2023-12-29T12:54:38;1.77;;;1.60;;
14768;SDS011;7476;49.404;11.152;2023-12-29T12:57:05;2.07;;;1.87;;
14768;SDS011;7476;49.404;11.152;2023-12-29T12:59:31;1.93;;;1.60;;
14768;SDS011;7476;49.404;11.152;2023-12-29T13:01:59;2.23;;;1.67;;
14768;SDS011;7476;49.404;11.152;2023-12-29T13:04:25;1.83;;;1.70;;
14768;SDS011;7476;49.404;11.152;2023-12-29T13:06:54;1.40;;;1.30;;
14768;SDS011;7476;49.404;11.152;2023-12-29T13:09:20;1.50;;;1.40;;
14768;SDS011;7476;49.404;11.152;2023-12-29T13:11:47;2.70;;;1.30;;
14768;SDS011;7476;49.404;11.152;2023-12-29T13:14:20;1.30;;;1.20;;
14768;SDS011;7476;49.404;11.152;2023-12-29T13:16:48;1.40;;;1.30;;
14768;SDS011;7476;49.404;11.152;2023-12-29T13:19:15;1.40;;;1.30;;
14768;SDS011;7476;49.404;11.152;2023-12-29T13:21:45;1.30;;;1.20;;
14768;SDS011;7476;49.404;11.152;2023-12-29T13:24:13;1.60;;;1.30;;
14768;SDS011;7476;49.404;11.152;2023-12-29T13:26:41;1.20;;;1.00;;
14768;SDS011;7476;49.404;11.152;2023-12-29T13:29:11;1.47;;;1.27;;
14768;SDS011;7476;49.404;11.152;2023-12-29T13:31:39;1.30;;;1.20;;
14768;SDS011;7476;49.404;11.152;2023-12-29T13:34:06;1.37;;;1.10;;
14768;SDS011;7476;49.404;11.152;2023-12-29T13:36:41;1.03;;;1.00;;
14768;SDS011;7476;49.404;11.152;2023-12-29T13:39:18;1.37;;;1.20;;
14768;SDS011;7476;49.404;11.152;2023-12-29T13:41:50;1.53;;;1.10;;
14768;SDS011;7476;49.404;11.152;2023-12-29T13:44:17;2.10;;;1.03;;
14768;SDS011;7476;49.404;11.152;2023-12-29T13:46:46;1.87;;;1.20;;
14768;SDS011;7476;49.404;11.152;2023-12-29T13:49:14;1.20;;;1.10;;
14768;SDS011;7476;49.404;11.152;2023-12-29T13:51:41;1.30;;;1.20;;
14768;SDS011;7476;49.404;11.152;2023-12-29T13:54:08;1.97;;;1.30;;
14768;SDS011;7476;49.404;11.152;2023-12-29T13:56:36;1.40;;;1.30;;
14768;SDS011;7476;49.404;11.152;2023-12-29T13:59:03;1.13;;;1.10;;
14768;SDS011;7476;49.404;11.152;2023-12-29T14:01:35;1.33;;;1.23;;
14768;SDS011;7476;49.404;11.152;2023-12-29T14:04:02;1.30;;;1.20;;
14768;SDS011;7476;49.404;11.152;2023-12-29T14:06:36;1.40;;;1.30;;
14768;SDS011;7476;49.404;11.152;2023-12-29T14:09:05;1.37;;;1.20;;
14768;SDS011;7476;49.404;11.152;2023-12-29T14:11:31;1.33;;;1.23;;
14768;SDS011;7476;49.404;11.152;2023-12-29T14:14:02;1.30;;;1.20;;
14768;SDS011;7476;49.404;11.152;2023-12-29T14:16:28;2.00;;;1.50;;
14768;SDS011;7476;49.404;11.152;2023-12-29T14:18:55;1.73;;;1.50;;
14768;SDS011;7476;49.404;11.152;2023-12-29T14:21:24;2.00;;;1.60;;
14768;SDS011;7476;49.404;11.152;2023-12-29T14:23:59;1.67;;;1.40;;
14768;SDS011;7476;49.404;11.152;2023-12-29T14:26:28;1.47;;;1.37;;
14768;SDS011;7476;49.404;11.152;2023-12-29T14:29:03;2.77;;;1.40;;
14768;SDS011;7476;49.404;11.152;2023-12-29T14:31:34;1.30;;;1.20;;
14768;SDS011;7476;49.404;11.152;2023-12-29T14:34:02;1.40;;;1.30;;
14768;SDS011;7476;49.404;11.152;2023-12-29T14:36:29;2.43;;;1.40;;
14768;SDS011;7476;49.404;11.152;2023-12-29T14:38:56;1.50;;;1.40;;
14768;SDS011;7476;49.404;11.152;2023-12-29T14:41:23;1.53;;;1.43;;
14768;SDS011;7476;49.404;11.152;2023-12-29T14:43:50;1.80;;;1.70;;
14768;SDS011;7476;49.404;11.152;2023-12-29T14:46:18;1.80;;;1.70;;
14768;SDS011;7476;49.404;11.152;2023-12-29T14:48:45;1.53;;;1.40;;
14768;SDS011;7476;49.404;11.152;2023-12-29T14:51:12;2.40;;;2.20;;
14768;SDS011;7476;49.404;11.152;2023-12-29T14:53:39;1.70;;;1.60;;
14768;SDS011;7476;49.404;11.152;2023-12-29T14:56:08;1.80;;;1.70;;
14768;SDS011;7476;49.404;11.152;2023-12-29T14:58:35;1.60;;;1.50;;
14768;SDS011;7476;49.404;11.152;2023-12-29T15:01:02;1.70;;;1.60;;